sensor_id;sensor_type;location;lat;lon;timestamp;temperature;humidity
46676;DHT22;32412;51.478;5.694;2023-04-23T00:01:46;8.80;99.90
46676;DHT22;32412;51.478;5.694;2023-04-23T00:04:21;8.80;99.90
46676;DHT22;32412;51.478;5.694;2023-04-23T00:07:02;8.80;99.90
46676;DHT22;32412;51.478;5.694;2023-04-23T00:09:37;8.70;99.90
46676;DHT22;32412;51.478;5.694;2023-04-23T00:12:12;8.70;99.90
46676;DHT22;32412;51.478;5.694;2023-04-23T00:15:04;8.70;99.90
46676;DHT22;32412;51.478;5.694;2023-04-23T00:20:56;8.60;99.90
46676;DHT22;32412;51.478;5.694;2023-04-23T00:23:33;8.60;99.90
46676;DHT22;32412;51.478;5.694;2023-04-23T00:25:59;8.60;99.90
46676;DHT22;32412;51.478;5.694;2023-04-23T00:28:24;8.50;99.90
46676;DHT22;32412;51.478;5.694;2023-04-23T00:30:50;8.50;99.90
46676;DHT22;32412;51.478;5.694;2023-04-23T00:33:32;8.50;99.90
46676;DHT22;32412;51.478;5.694;2023-04-23T00:36:07;8.50;99.90
46676;DHT22;32412;51.478;5.694;2023-04-23T00:38:41;8.50;99.90
46676;DHT22;32412;51.478;5.694;2023-04-23T00:41:10;8.50;99.90
46676;DHT22;32412;51.478;5.694;2023-04-23T00:43:54;8.40;99.90
46676;DHT22;32412;51.478;5.694;2023-04-23T00:56:07;8.40;99.90
46676;DHT22;32412;51.478;5.694;2023-04-23T00:58:36;8.40;99.90
46676;DHT22;32412;51.478;5.694;2023-04-23T01:01:03;8.30;99.90
46676;DHT22;32412;51.478;5.694;2023-04-23T01:03:30;8.40;99.90
46676;DHT22;32412;51.478;5.694;2023-04-23T01:05:57;8.40;99.90
46676;DHT22;32412;51.478;5.694;2023-04-23T01:08:23;8.30;99.90
46676;DHT22;32412;51.478;5.694;2023-04-23T01:10:53;8.40;99.90
46676;DHT22;32412;51.478;5.694;2023-04-23T01:13:19;8.40;99.90
46676;DHT22;32412;51.478;5.694;2023-04-23T01:15:47;8.40;99.90
46676;DHT22;32412;51.478;5.694;2023-04-23T01:18:13;8.40;99.90
46676;DHT22;32412;51.478;5.694;2023-04-23T01:20:39;8.40;99.90
46676;DHT22;32412;51.478;5.694;2023-04-23T01:23:08;8.40;99.90
46676;DHT22;32412;51.478;5.694;2023-04-23T01:25:34;8.40;99.90
46676;DHT22;32412;51.478;5.694;2023-04-23T01:28:06;8.40;99.90
46676;DHT22;32412;51.478;5.694;2023-04-23T01:30:35;8.40;99.90
46676;DHT22;32412;51.478;5.694;2023-04-23T01:33:01;8.50;99.90
46676;DHT22;32412;51.478;5.694;2023-04-23T01:35:31;8.50;99.90
46676;DHT22;32412;51.478;5.694;2023-04-23T01:37:58;8.50;99.90
46676;DHT22;32412;51.478;5.694;2023-04-23T01:40:27;8.60;99.90
46676;DHT22;32412;51.478;5.694;2023-04-23T01:42:53;8.60;99.90
46676;DHT22;32412;51.478;5.694;2023-04-23T01:45:19;8.70;99.90
46676;DHT22;32412;51.478;5.694;2023-04-23T01:47:47;8.70;99.90
46676;DHT22;32412;51.478;5.694;2023-04-23T01:50:19;8.70;99.90
46676;DHT22;32412;51.478;5.694;2023-04-23T01:52:53;8.70;99.90
46676;DHT22;32412;51.478;5.694;2023-04-23T01:55:19;8.70;99.90
46676;DHT22;32412;51.478;5.694;2023-04-23T01:57:48;8.80;99.90
46676;DHT22;32412;51.478;5.694;2023-04-23T02:00:14;8.80;99.90
46676;DHT22;32412;51.478;5.694;2023-04-23T02:02:56;8.80;99.90
46676;DHT22;32412;51.478;5.694;2023-04-23T02:05:25;8.80;99.90
46676;DHT22;32412;51.478;5.694;2023-04-23T02:08:02;8.90;99.90
46676;DHT22;32412;51.478;5.694;2023-04-23T02:10:33;8.90;99.90
46676;DHT22;32412;51.478;5.694;2023-04-23T02:13:06;8.90;99.90
46676;DHT22;32412;51.478;5.694;2023-04-23T02:15:52;8.80;99.90
46676;DHT22;32412;51.478;5.694;2023-04-23T02:18:20;8.80;99.90
46676;DHT22;32412;51.478;5.694;2023-04-23T02:20:46;8.80;99.90
46676;DHT22;32412;51.478;5.694;2023-04-23T02:23:15;8.80;99.90
46676;DHT22;32412;51.478;5.694;2023-04-23T02:25:41;8.70;99.90
46676;DHT22;32412;51.478;5.694;2023-04-23T02:28:07;8.70;99.90
46676;DHT22;32412;51.478;5.694;2023-04-23T02:30:36;8.60;99.90
46676;DHT22;32412;51.478;5.694;2023-04-23T02:33:05;8.70;99.90
46676;DHT22;32412;51.478;5.694;2023-04-23T02:35:33;8.70;99.90
46676;DHT22;32412;51.478;5.694;2023-04-23T02:37:59;8.60;99.90
46676;DHT22;32412;51.478;5.694;2023-04-23T02:40:25;8.70;99.90
46676;DHT22;32412;51.478;5.694;2023-04-23T02:42:53;8.60;99.90
46676;DHT22;32412;51.478;5.694;2023-04-23T02:45:19;8.70;99.90
46676;DHT22;32412;51.478;5.694;2023-04-23T02:47:47;8.70;99.90
46676;DHT22;32412;51.478;5.694;2023-04-23T02:50:19;8.70;99.90
46676;DHT22;32412;51.478;5.694;2023-04-23T02:52:58;8.80;99.90
46676;DHT22;32412;51.478;5.694;2023-04-23T02:55:24;8.90;99.90
46676;DHT22;32412;51.478;5.694;2023-04-23T02:57:50;8.90;99.90
46676;DHT22;32412;51.478;5.694;2023-04-23T03:00:18;8.90;99.90
46676;DHT22;32412;51.478;5.694;2023-04-23T03:02:44;8.90;99.90
46676;DHT22;32412;51.478;5.694;2023-04-23T03:05:10;8.80;99.90
46676;DHT22;32412;51.478;5.694;2023-04-23T03:07:48;8.80;99.90
46676;DHT22;32412;51.478;5.694;2023-04-23T03:10:21;8.80;99.90
46676;DHT22;32412;51.478;5.694;2023-04-23T03:12:47;8.70;99.90
46676;DHT22;32412;51.478;5.694;2023-04-23T03:15:16;8.70;99.90
46676;DHT22;32412;51.478;5.694;2023-04-23T03:17:45;8.60;99.90
46676;DHT22;32412;51.478;5.694;2023-04-23T03:20:11;8.70;99.90
46676;DHT22;32412;51.478;5.694;2023-04-23T03:22:36;8.70;99.90
46676;DHT22;32412;51.478;5.694;2023-04-23T03:25:02;8.80;99.90
46676;DHT22;32412;51.478;5.694;2023-04-23T03:27:28;8.80;99.90
46676;DHT22;32412;51.478;5.694;2023-04-23T03:29:59;8.80;99.90
46676;DHT22;32412;51.478;5.694;2023-04-23T03:32:33;8.70;99.90
46676;DHT22;32412;51.478;5.694;2023-04-23T03:35:03;8.70;99.90
46676;DHT22;32412;51.478;5.694;2023-04-23T03:37:37;8.70;99.90
46676;DHT22;32412;51.478;5.694;2023-04-23T03:40:05;8.70;99.90
46676;DHT22;32412;51.478;5.694;2023-04-23T03:42:39;8.70;99.90
46676;DHT22;32412;51.478;5.694;2023-04-23T03:45:13;8.70;99.90
46676;DHT22;32412;51.478;5.694;2023-04-23T03:47:42;8.80;99.90
46676;DHT22;32412;51.478;5.694;2023-04-23T03:50:17;8.80;99.90
46676;DHT22;32412;51.478;5.694;2023-04-23T03:52:54;8.90;99.90
46676;DHT22;32412;51.478;5.694;2023-04-23T03:56:01;9.00;99.90
46676;DHT22;32412;51.478;5.694;2023-04-23T03:58:30;9.10;99.90
46676;DHT22;32412;51.478;5.694;2023-04-23T04:01:04;9.20;99.90
46676;DHT22;32412;51.478;5.694;2023-04-23T04:06:36;9.10;99.90
46676;DHT22;32412;51.478;5.694;2023-04-23T04:09:24;9.20;99.90
46676;DHT22;32412;51.478;5.694;2023-04-23T04:11:59;9.20;99.90
46676;DHT22;32412;51.478;5.694;2023-04-23T04:14:27;9.30;99.90
46676;DHT22;32412;51.478;5.694;2023-04-23T04:17:03;9.30;99.90
46676;DHT22;32412;51.478;5.694;2023-04-23T04:19:39;9.30;99.90
46676;DHT22;32412;51.478;5.694;2023-04-23T04:22:25;9.30;99.90
46676;DHT22;32412;51.478;5.694;2023-04-23T04:24:56;9.40;99.90
46676;DHT22;32412;51.478;5.694;2023-04-23T04:27:34;9.30;99.90
46676;DHT22;32412;51.478;5.694;2023-04-23T04:30:06;9.30;99.90
46676;DHT22;32412;51.478;5.694;2023-04-23T04:32:35;9.30;99.90
46676;DHT22;32412;51.478;5.694;2023-04-23T04:35:08;9.30;99.90
46676;DHT22;32412;51.478;5.694;2023-04-23T04:37:47;9.30;99.90
46676;DHT22;32412;51.478;5.694;2023-04-23T04:40:14;9.30;99.90
46676;DHT22;32412;51.478;5.694;2023-04-23T04:42:42;9.40;99.90
46676;DHT22;32412;51.478;5.694;2023-04-23T04:45:11;9.30;99.90
46676;DHT22;32412;51.478;5.694;2023-04-23T04:47:43;9.40;99.90
46676;DHT22;32412;51.478;5.694;2023-04-23T04:50:19;9.40;99.90
46676;DHT22;32412;51.478;5.694;2023-04-23T04:52:59;9.40;99.90
46676;DHT22;32412;51.478;5.694;2023-04-23T04:55:28;9.40;99.90
46676;DHT22;32412;51.478;5.694;2023-04-23T04:57:57;9.40;99.90
46676;DHT22;32412;51.478;5.694;2023-04-23T05:00:34;9.40;99.90
46676;DHT22;32412;51.478;5.694;2023-04-23T05:03:01;9.30;99.90
46676;DHT22;32412;51.478;5.694;2023-04-23T05:05:33;9.30;99.90
46676;DHT22;32412;51.478;5.694;2023-04-23T05:08:05;9.30;99.90
46676;DHT22;32412;51.478;5.694;2023-04-23T05:10:31;9.20;99.90
46676;DHT22;32412;51.478;5.694;2023-04-23T05:13:02;9.30;99.90
46676;DHT22;32412;51.478;5.694;2023-04-23T05:15:33;9.20;99.90
46676;DHT22;32412;51.478;5.694;2023-04-23T05:18:01;9.20;99.90
46676;DHT22;32412;51.478;5.694;2023-04-23T05:20:30;9.20;99.90
46676;DHT22;32412;51.478;5.694;2023-04-23T05:23:01;9.20;99.90
46676;DHT22;32412;51.478;5.694;2023-04-23T05:25:39;9.30;99.90
46676;DHT22;32412;51.478;5.694;2023-04-23T05:31:29;9.50;99.90
46676;DHT22;32412;51.478;5.694;2023-04-23T05:33:55;9.70;99.90
46676;DHT22;32412;51.478;5.694;2023-04-23T05:36:21;9.70;99.90
46676;DHT22;32412;51.478;5.694;2023-04-23T05:38:57;9.80;99.90
46676;DHT22;32412;51.478;5.694;2023-04-23T05:41:26;9.90;99.90
46676;DHT22;32412;51.478;5.694;2023-04-23T05:43:55;9.90;99.90
46676;DHT22;32412;51.478;5.694;2023-04-23T05:46:26;9.90;99.90
46676;DHT22;32412;51.478;5.694;2023-04-23T05:48:57;10.00;99.90
46676;DHT22;32412;51.478;5.694;2023-04-23T05:51:25;10.10;99.90
46676;DHT22;32412;51.478;5.694;2023-04-23T05:53:57;10.20;99.90
46676;DHT22;32412;51.478;5.694;2023-04-23T05:56:23;10.30;99.90
46676;DHT22;32412;51.478;5.694;2023-04-23T05:58:55;10.40;99.90
46676;DHT22;32412;51.478;5.694;2023-04-23T06:01:23;10.50;99.90
46676;DHT22;32412;51.478;5.694;2023-04-23T06:03:51;10.50;99.90
46676;DHT22;32412;51.478;5.694;2023-04-23T06:06:22;10.50;99.90
46676;DHT22;32412;51.478;5.694;2023-04-23T06:08:54;10.40;99.90
46676;DHT22;32412;51.478;5.694;2023-04-23T06:11:23;10.40;99.90
46676;DHT22;32412;51.478;5.694;2023-04-23T06:13:59;10.50;99.90
46676;DHT22;32412;51.478;5.694;2023-04-23T06:16:33;10.50;99.90
46676;DHT22;32412;51.478;5.694;2023-04-23T06:18:58;10.50;99.90
46676;DHT22;32412;51.478;5.694;2023-04-23T06:21:32;10.70;99.90
46676;DHT22;32412;51.478;5.694;2023-04-23T06:24:04;10.70;99.90
46676;DHT22;32412;51.478;5.694;2023-04-23T06:26:30;10.80;99.90
46676;DHT22;32412;51.478;5.694;2023-04-23T06:29:03;10.80;99.90
46676;DHT22;32412;51.478;5.694;2023-04-23T06:31:32;10.90;99.90
46676;DHT22;32412;51.478;5.694;2023-04-23T06:33:58;11.00;99.90
46676;DHT22;32412;51.478;5.694;2023-04-23T06:36:28;11.10;99.90
46676;DHT22;32412;51.478;5.694;2023-04-23T06:38:57;11.20;99.90
46676;DHT22;32412;51.478;5.694;2023-04-23T06:41:26;11.30;99.90
46676;DHT22;32412;51.478;5.694;2023-04-23T06:43:52;11.50;99.90
46676;DHT22;32412;51.478;5.694;2023-04-23T06:46:23;11.60;99.90
46676;DHT22;32412;51.478;5.694;2023-04-23T06:48:54;11.60;99.90
46676;DHT22;32412;51.478;5.694;2023-04-23T06:51:29;11.80;99.90
46676;DHT22;32412;51.478;5.694;2023-04-23T06:53:56;11.90;99.90
46676;DHT22;32412;51.478;5.694;2023-04-23T06:56:23;12.00;99.90
46676;DHT22;32412;51.478;5.694;2023-04-23T06:58:50;12.00;99.90
46676;DHT22;32412;51.478;5.694;2023-04-23T07:01:16;12.20;99.90
46676;DHT22;32412;51.478;5.694;2023-04-23T07:03:44;12.40;99.90
46676;DHT22;32412;51.478;5.694;2023-04-23T07:06:14;12.40;99.90
46676;DHT22;32412;51.478;5.694;2023-04-23T07:08:40;12.60;99.90
46676;DHT22;32412;51.478;5.694;2023-04-23T07:11:06;12.70;99.90
46676;DHT22;32412;51.478;5.694;2023-04-23T07:13:32;12.80;99.90
46676;DHT22;32412;51.478;5.694;2023-04-23T07:15:57;12.90;99.90
46676;DHT22;32412;51.478;5.694;2023-04-23T07:18:23;13.00;99.90
46676;DHT22;32412;51.478;5.694;2023-04-23T07:20:49;13.10;99.90
46676;DHT22;32412;51.478;5.694;2023-04-23T07:23:15;13.20;99.90
46676;DHT22;32412;51.478;5.694;2023-04-23T07:25:41;13.30;99.90
46676;DHT22;32412;51.478;5.694;2023-04-23T07:28:09;13.40;99.90
46676;DHT22;32412;51.478;5.694;2023-04-23T07:30:35;13.30;99.90
46676;DHT22;32412;51.478;5.694;2023-04-23T07:33:00;13.40;99.90
46676;DHT22;32412;51.478;5.694;2023-04-23T07:35:26;13.50;99.90
46676;DHT22;32412;51.478;5.694;2023-04-23T07:37:58;13.70;99.90
46676;DHT22;32412;51.478;5.694;2023-04-23T07:40:26;13.70;99.90
46676;DHT22;32412;51.478;5.694;2023-04-23T07:42:54;13.70;99.90
46676;DHT22;32412;51.478;5.694;2023-04-23T07:45:22;13.80;99.90
46676;DHT22;32412;51.478;5.694;2023-04-23T07:47:52;13.80;99.90
46676;DHT22;32412;51.478;5.694;2023-04-23T07:50:18;13.90;99.90
46676;DHT22;32412;51.478;5.694;2023-04-23T07:52:43;14.00;99.90
46676;DHT22;32412;51.478;5.694;2023-04-23T07:55:09;14.20;99.90
46676;DHT22;32412;51.478;5.694;2023-04-23T07:57:35;14.30;99.90
46676;DHT22;32412;51.478;5.694;2023-04-23T08:00:01;14.40;99.90
46676;DHT22;32412;51.478;5.694;2023-04-23T08:02:26;14.40;99.90
46676;DHT22;32412;51.478;5.694;2023-04-23T08:04:52;14.50;99.90
46676;DHT22;32412;51.478;5.694;2023-04-23T08:07:18;14.60;99.90
46676;DHT22;32412;51.478;5.694;2023-04-23T08:09:44;14.80;99.90
46676;DHT22;32412;51.478;5.694;2023-04-23T08:12:10;15.00;99.90
46676;DHT22;32412;51.478;5.694;2023-04-23T08:14:36;15.10;99.90
46676;DHT22;32412;51.478;5.694;2023-04-23T08:17:02;15.10;99.90
46676;DHT22;32412;51.478;5.694;2023-04-23T08:19:28;15.20;99.90
46676;DHT22;32412;51.478;5.694;2023-04-23T08:22:05;15.20;99.90
46676;DHT22;32412;51.478;5.694;2023-04-23T08:24:34;15.30;99.90
46676;DHT22;32412;51.478;5.694;2023-04-23T08:27:00;15.50;99.90
46676;DHT22;32412;51.478;5.694;2023-04-23T08:29:26;15.70;99.90
46676;DHT22;32412;51.478;5.694;2023-04-23T08:31:52;15.60;99.90
46676;DHT22;32412;51.478;5.694;2023-04-23T08:34:17;15.80;99.90
46676;DHT22;32412;51.478;5.694;2023-04-23T08:36:43;15.90;99.90
46676;DHT22;32412;51.478;5.694;2023-04-23T08:39:10;16.10;99.90
46676;DHT22;32412;51.478;5.694;2023-04-23T08:41:40;16.20;99.90
46676;DHT22;32412;51.478;5.694;2023-04-23T08:44:17;16.40;99.90
46676;DHT22;32412;51.478;5.694;2023-04-23T08:46:44;16.40;99.90
46676;DHT22;32412;51.478;5.694;2023-04-23T08:49:15;16.50;99.90
46676;DHT22;32412;51.478;5.694;2023-04-23T08:51:50;16.60;99.90
46676;DHT22;32412;51.478;5.694;2023-04-23T08:54:27;16.70;99.90
46676;DHT22;32412;51.478;5.694;2023-04-23T08:56:57;16.80;99.90
46676;DHT22;32412;51.478;5.694;2023-04-23T08:59:29;16.80;99.90
46676;DHT22;32412;51.478;5.694;2023-04-23T09:01:59;17.10;99.90
46676;DHT22;32412;51.478;5.694;2023-04-23T09:04:32;17.20;99.90
46676;DHT22;32412;51.478;5.694;2023-04-23T09:07:00;17.10;99.90
46676;DHT22;32412;51.478;5.694;2023-04-23T09:09:28;16.90;99.90
46676;DHT22;32412;51.478;5.694;2023-04-23T09:11:55;16.80;99.90
46676;DHT22;32412;51.478;5.694;2023-04-23T09:14:27;16.80;99.90
46676;DHT22;32412;51.478;5.694;2023-04-23T09:20:43;17.20;99.90
46676;DHT22;32412;51.478;5.694;2023-04-23T09:47:05;19.70;99.90
46676;DHT22;32412;51.478;5.694;2023-04-23T09:49:47;19.90;99.90
46676;DHT22;32412;51.478;5.694;2023-04-23T09:52:13;19.70;99.90
46676;DHT22;32412;51.478;5.694;2023-04-23T09:54:39;19.40;99.90
46676;DHT22;32412;51.478;5.694;2023-04-23T09:57:10;18.90;99.90
46676;DHT22;32412;51.478;5.694;2023-04-23T09:59:42;18.50;99.90
46676;DHT22;32412;51.478;5.694;2023-04-23T10:02:09;18.30;99.90
46676;DHT22;32412;51.478;5.694;2023-04-23T10:04:43;18.30;99.90
46676;DHT22;32412;51.478;5.694;2023-04-23T10:07:11;18.70;99.90
46676;DHT22;32412;51.478;5.694;2023-04-23T10:12:32;19.70;99.90
46676;DHT22;32412;51.478;5.694;2023-04-23T10:18:39;19.30;99.90
46676;DHT22;32412;51.478;5.694;2023-04-23T10:21:11;18.70;99.90
46676;DHT22;32412;51.478;5.694;2023-04-23T10:23:49;19.00;99.90
46676;DHT22;32412;51.478;5.694;2023-04-23T10:29:51;20.20;99.90
46676;DHT22;32412;51.478;5.694;2023-04-23T10:42:48;18.80;99.90
46676;DHT22;32412;51.478;5.694;2023-04-23T10:52:03;19.30;99.90
46676;DHT22;32412;51.478;5.694;2023-04-23T10:54:35;19.80;99.90
46676;DHT22;32412;51.478;5.694;2023-04-23T10:57:05;20.10;99.90
46676;DHT22;32412;51.478;5.694;2023-04-23T10:59:33;20.10;99.90
46676;DHT22;32412;51.478;5.694;2023-04-23T11:02:10;20.50;99.90
46676;DHT22;32412;51.478;5.694;2023-04-23T11:04:44;20.90;99.90
46676;DHT22;32412;51.478;5.694;2023-04-23T11:07:11;20.90;99.90
46676;DHT22;32412;51.478;5.694;2023-04-23T11:09:47;20.50;99.90
46676;DHT22;32412;51.478;5.694;2023-04-23T11:14:55;20.30;99.90
46676;DHT22;32412;51.478;5.694;2023-04-23T11:17:23;20.30;99.90
46676;DHT22;32412;51.478;5.694;2023-04-23T11:20:10;20.20;99.90
46676;DHT22;32412;51.478;5.694;2023-04-23T11:22:48;20.10;99.90
46676;DHT22;32412;51.478;5.694;2023-04-23T11:25:19;20.00;99.90
46676;DHT22;32412;51.478;5.694;2023-04-23T11:27:50;20.00;99.90
46676;DHT22;32412;51.478;5.694;2023-04-23T11:30:18;20.30;99.90
46676;DHT22;32412;51.478;5.694;2023-04-23T11:32:46;20.50;99.90
46676;DHT22;32412;51.478;5.694;2023-04-23T11:35:16;20.60;99.90
46676;DHT22;32412;51.478;5.694;2023-04-23T11:37:43;20.50;99.90
46676;DHT22;32412;51.478;5.694;2023-04-23T11:40:20;20.20;99.90
46676;DHT22;32412;51.478;5.694;2023-04-23T11:42:51;20.30;99.90
46676;DHT22;32412;51.478;5.694;2023-04-23T11:45:27;20.50;99.90
46676;DHT22;32412;51.478;5.694;2023-04-23T12:40:16;22.40;98.70
46676;DHT22;32412;51.478;5.694;2023-04-23T12:43:07;21.90;99.10
46676;DHT22;32412;51.478;5.694;2023-04-23T12:45:39;21.70;99.60
46676;DHT22;32412;51.478;5.694;2023-04-23T12:51:30;21.00;99.90
46676;DHT22;32412;51.478;5.694;2023-04-23T13:00:45;19.90;99.90
46676;DHT22;32412;51.478;5.694;2023-04-23T13:10:26;19.20;99.90
46676;DHT22;32412;51.478;5.694;2023-04-23T13:27:12;20.30;99.90
46676;DHT22;32412;51.478;5.694;2023-04-23T13:33:12;20.90;99.90
46676;DHT22;32412;51.478;5.694;2023-04-23T13:36:08;20.80;99.90
46676;DHT22;32412;51.478;5.694;2023-04-23T13:39:01;20.70;99.90
46676;DHT22;32412;51.478;5.694;2023-04-23T13:41:51;20.40;99.90
46676;DHT22;32412;51.478;5.694;2023-04-23T13:44:41;20.10;99.90
46676;DHT22;32412;51.478;5.694;2023-04-23T13:50:32;19.20;99.90
46676;DHT22;32412;51.478;5.694;2023-04-23T13:56:42;18.60;99.20
46676;DHT22;32412;51.478;5.694;2023-04-23T13:59:30;18.40;99.20
46676;DHT22;32412;51.478;5.694;2023-04-23T14:02:08;18.10;99.90
46676;DHT22;32412;51.478;5.694;2023-04-23T14:04:46;18.10;99.90
46676;DHT22;32412;51.478;5.694;2023-04-23T14:10:42;18.00;99.90
46676;DHT22;32412;51.478;5.694;2023-04-23T14:16:15;17.90;99.90
46676;DHT22;32412;51.478;5.694;2023-04-23T14:18:44;17.70;99.90
46676;DHT22;32412;51.478;5.694;2023-04-23T14:21:13;17.40;99.90
46676;DHT22;32412;51.478;5.694;2023-04-23T14:23:50;16.90;99.90
46676;DHT22;32412;51.478;5.694;2023-04-23T14:26:33;16.30;99.90
46676;DHT22;32412;51.478;5.694;2023-04-23T14:29:23;15.70;99.90
46676;DHT22;32412;51.478;5.694;2023-04-23T14:31:57;15.40;99.90
46676;DHT22;32412;51.478;5.694;2023-04-23T14:34:25;15.40;99.90
46676;DHT22;32412;51.478;5.694;2023-04-23T14:36:51;15.30;99.90
46676;DHT22;32412;51.478;5.694;2023-04-23T14:39:17;15.10;99.90
46676;DHT22;32412;51.478;5.694;2023-04-23T14:41:57;15.00;99.90
46676;DHT22;32412;51.478;5.694;2023-04-23T14:44:30;14.60;99.90
46676;DHT22;32412;51.478;5.694;2023-04-23T14:54:47;13.60;99.90
46676;DHT22;32412;51.478;5.694;2023-04-23T14:57:22;13.50;99.90
46676;DHT22;32412;51.478;5.694;2023-04-23T14:59:49;13.50;99.90
46676;DHT22;32412;51.478;5.694;2023-04-23T15:02:15;13.50;99.90
46676;DHT22;32412;51.478;5.694;2023-04-23T15:04:40;13.50;99.90
46676;DHT22;32412;51.478;5.694;2023-04-23T15:07:11;13.50;99.90
46676;DHT22;32412;51.478;5.694;2023-04-23T15:09:37;13.50;99.90
46676;DHT22;32412;51.478;5.694;2023-04-23T15:12:05;13.40;99.90
46676;DHT22;32412;51.478;5.694;2023-04-23T15:14:47;13.40;99.90
46676;DHT22;32412;51.478;5.694;2023-04-23T15:17:16;13.40;99.90
46676;DHT22;32412;51.478;5.694;2023-04-23T15:19:42;13.40;99.90
46676;DHT22;32412;51.478;5.694;2023-04-23T15:22:10;13.40;99.90
46676;DHT22;32412;51.478;5.694;2023-04-23T15:24:36;13.30;99.90
46676;DHT22;32412;51.478;5.694;2023-04-23T15:27:01;13.30;99.90
46676;DHT22;32412;51.478;5.694;2023-04-23T15:29:27;13.20;99.90
46676;DHT22;32412;51.478;5.694;2023-04-23T15:31:54;13.10;99.90
46676;DHT22;32412;51.478;5.694;2023-04-23T15:34:22;13.20;99.90
46676;DHT22;32412;51.478;5.694;2023-04-23T15:36:51;13.10;99.90
46676;DHT22;32412;51.478;5.694;2023-04-23T15:39:17;13.20;99.90
46676;DHT22;32412;51.478;5.694;2023-04-23T15:41:46;13.20;99.90
46676;DHT22;32412;51.478;5.694;2023-04-23T15:44:11;13.20;99.90
46676;DHT22;32412;51.478;5.694;2023-04-23T15:46:37;13.20;99.90
46676;DHT22;32412;51.478;5.694;2023-04-23T15:49:03;13.10;99.90
46676;DHT22;32412;51.478;5.694;2023-04-23T15:51:47;13.10;99.90
46676;DHT22;32412;51.478;5.694;2023-04-23T15:54:16;13.10;99.90
46676;DHT22;32412;51.478;5.694;2023-04-23T15:56:41;13.10;99.90
46676;DHT22;32412;51.478;5.694;2023-04-23T15:59:07;13.10;99.90
46676;DHT22;32412;51.478;5.694;2023-04-23T16:01:42;13.20;99.90
46676;DHT22;32412;51.478;5.694;2023-04-23T16:04:08;13.30;99.90
46676;DHT22;32412;51.478;5.694;2023-04-23T16:06:33;13.40;99.90
46676;DHT22;32412;51.478;5.694;2023-04-23T16:09:02;13.40;99.90
46676;DHT22;32412;51.478;5.694;2023-04-23T16:11:34;13.40;99.90
46676;DHT22;32412;51.478;5.694;2023-04-23T16:14:04;13.40;99.90
46676;DHT22;32412;51.478;5.694;2023-04-23T16:16:33;13.40;99.90
46676;DHT22;32412;51.478;5.694;2023-04-23T16:19:06;13.40;99.90
46676;DHT22;32412;51.478;5.694;2023-04-23T16:21:32;13.40;99.90
46676;DHT22;32412;51.478;5.694;2023-04-23T16:23:58;13.50;99.90
46676;DHT22;32412;51.478;5.694;2023-04-23T16:26:27;13.60;99.90
46676;DHT22;32412;51.478;5.694;2023-04-23T16:28:53;13.50;99.90
46676;DHT22;32412;51.478;5.694;2023-04-23T16:31:22;13.60;99.90
46676;DHT22;32412;51.478;5.694;2023-04-23T16:33:47;13.60;99.90
46676;DHT22;32412;51.478;5.694;2023-04-23T16:36:13;13.60;99.90
46676;DHT22;32412;51.478;5.694;2023-04-23T16:38:40;13.70;99.90
46676;DHT22;32412;51.478;5.694;2023-04-23T16:41:09;13.70;99.90
46676;DHT22;32412;51.478;5.694;2023-04-23T16:43:35;13.70;99.90
46676;DHT22;32412;51.478;5.694;2023-04-23T16:46:01;13.70;99.90
46676;DHT22;32412;51.478;5.694;2023-04-23T16:48:30;13.70;99.90
46676;DHT22;32412;51.478;5.694;2023-04-23T16:50:55;13.60;99.90
46676;DHT22;32412;51.478;5.694;2023-04-23T16:53:22;13.70;99.90
46676;DHT22;32412;51.478;5.694;2023-04-23T16:55:47;13.70;99.90
46676;DHT22;32412;51.478;5.694;2023-04-23T16:58:13;13.70;99.90
46676;DHT22;32412;51.478;5.694;2023-04-23T17:00:40;13.70;99.90
46676;DHT22;32412;51.478;5.694;2023-04-23T17:03:06;13.80;99.90
46676;DHT22;32412;51.478;5.694;2023-04-23T17:05:34;13.90;99.90
46676;DHT22;32412;51.478;5.694;2023-04-23T17:08:05;14.00;99.90
46676;DHT22;32412;51.478;5.694;2023-04-23T17:10:31;14.40;99.90
46676;DHT22;32412;51.478;5.694;2023-04-23T17:12:57;14.40;99.90
46676;DHT22;32412;51.478;5.694;2023-04-23T17:15:23;14.40;99.90
46676;DHT22;32412;51.478;5.694;2023-04-23T17:17:49;14.30;99.90
46676;DHT22;32412;51.478;5.694;2023-04-23T17:20:21;14.20;99.90
46676;DHT22;32412;51.478;5.694;2023-04-23T17:22:47;14.10;99.90
46676;DHT22;32412;51.478;5.694;2023-04-23T17:25:16;14.00;99.90
46676;DHT22;32412;51.478;5.694;2023-04-23T17:27:41;14.00;99.90
46676;DHT22;32412;51.478;5.694;2023-04-23T17:30:11;13.90;99.90
46676;DHT22;32412;51.478;5.694;2023-04-23T17:32:36;13.90;99.90
46676;DHT22;32412;51.478;5.694;2023-04-23T17:35:02;13.80;99.90
46676;DHT22;32412;51.478;5.694;2023-04-23T17:37:31;13.70;99.90
46676;DHT22;32412;51.478;5.694;2023-04-23T17:39:59;13.70;99.90
46676;DHT22;32412;51.478;5.694;2023-04-23T17:42:28;13.70;99.90
46676;DHT22;32412;51.478;5.694;2023-04-23T17:44:53;13.60;99.90
46676;DHT22;32412;51.478;5.694;2023-04-23T17:47:22;13.60;99.90
46676;DHT22;32412;51.478;5.694;2023-04-23T17:49:51;13.50;99.90
46676;DHT22;32412;51.478;5.694;2023-04-23T17:52:17;13.50;99.90
46676;DHT22;32412;51.478;5.694;2023-04-23T17:54:46;13.50;99.90
46676;DHT22;32412;51.478;5.694;2023-04-23T17:57:12;13.40;99.90
46676;DHT22;32412;51.478;5.694;2023-04-23T17:59:37;13.40;99.90
46676;DHT22;32412;51.478;5.694;2023-04-23T18:02:03;13.20;99.90
46676;DHT22;32412;51.478;5.694;2023-04-23T18:04:34;13.20;99.90
46676;DHT22;32412;51.478;5.694;2023-04-23T18:07:13;13.20;99.90
46676;DHT22;32412;51.478;5.694;2023-04-23T18:12:19;13.10;99.90
46676;DHT22;32412;51.478;5.694;2023-04-23T18:15:00;13.10;99.90
46676;DHT22;32412;51.478;5.694;2023-04-23T18:17:28;13.10;99.90
46676;DHT22;32412;51.478;5.694;2023-04-23T18:20:01;13.10;99.90
46676;DHT22;32412;51.478;5.694;2023-04-23T18:22:27;13.00;99.90
46676;DHT22;32412;51.478;5.694;2023-04-23T18:24:56;13.00;99.90
46676;DHT22;32412;51.478;5.694;2023-04-23T18:27:24;12.90;99.90
46676;DHT22;32412;51.478;5.694;2023-04-23T18:29:50;12.90;99.90
46676;DHT22;32412;51.478;5.694;2023-04-23T18:32:22;12.80;99.90
46676;DHT22;32412;51.478;5.694;2023-04-23T18:34:53;12.70;99.90
46676;DHT22;32412;51.478;5.694;2023-04-23T18:37:51;12.80;99.90
46676;DHT22;32412;51.478;5.694;2023-04-23T18:40:25;12.80;99.90
46676;DHT22;32412;51.478;5.694;2023-04-23T18:43:01;12.80;99.90
46676;DHT22;32412;51.478;5.694;2023-04-23T18:45:27;12.80;99.90
46676;DHT22;32412;51.478;5.694;2023-04-23T18:51:29;12.80;99.90
46676;DHT22;32412;51.478;5.694;2023-04-23T18:54:10;12.50;99.90
46676;DHT22;32412;51.478;5.694;2023-04-23T18:56:42;12.10;99.90
46676;DHT22;32412;51.478;5.694;2023-04-23T18:59:24;11.90;99.90
46676;DHT22;32412;51.478;5.694;2023-04-23T19:01:53;11.80;99.90
46676;DHT22;32412;51.478;5.694;2023-04-23T19:04:21;11.70;99.90
46676;DHT22;32412;51.478;5.694;2023-04-23T19:06:56;11.70;99.90